.
WxDataArchive / Data Records for 2011-09-12
2011-09-11 September 2011 2011-09-13

Data Records for Monday, 12 September 2011

Time	Temp	Chill	HIndex	Humid	Dewpt	 Wind 	HiWind	WindDir	Rain 	Barom 
-----	----	-----	------	-----	-----	------	------	-------	-----	----- 
00:00	64.7	64.7	64.7	90	61.7	0	0	---	0.00	29.992 
00:05	64.7	64.7	64.7	90	61.7	0	1	315	0.00	29.992 
00:10	64.8	64.8	64.8	90	61.8	0	0	---	0.00	29.992 
00:15	65.0	65.0	65.0	89	61.7	0	1	315	0.00	29.996 
00:20	65.0	65.0	65.0	89	61.7	0	0	---	0.00	29.996 
00:25	65.0	65.0	65.0	89	61.7	0	0	---	0.00	29.996 
00:30	65.0	65.0	65.0	89	61.7	0	0	---	0.00	29.994 
00:35	64.8	64.8	64.8	88	61.2	0	0	---	0.00	29.994 
00:40	64.8	64.8	64.8	88	61.2	0	0	---	0.00	29.994 
00:45	64.7	64.7	64.7	88	61.1	0	0	---	0.00	29.993 
00:50	64.5	64.5	64.5	88	60.9	0	0	---	0.00	29.993 
00:55	64.5	64.5	64.5	89	61.2	0	0	---	0.00	29.993 
01:00	64.3	64.3	64.3	89	61.0	0	0	---	0.00	29.994 
01:05	64.3	64.3	64.3	89	61.0	0	0	---	0.00	29.994 
01:10	64.2	64.2	64.2	89	60.9	0	0	---	0.00	29.994 
01:15	64.0	64.0	64.0	89	60.7	0	0	---	0.00	29.992 
01:20	63.9	63.9	63.9	89	60.6	0	0	---	0.00	29.992 
01:25	63.7	63.7	63.7	89	60.4	0	0	---	0.00	29.992 
01:30	63.5	63.5	63.5	89	60.2	0	0	---	0.00	29.988 
01:35	63.4	63.4	63.4	90	60.4	0	0	---	0.00	29.988 
01:40	63.4	63.4	63.4	90	60.4	0	0	---	0.00	29.988 
01:45	63.2	63.2	63.2	90	60.2	0	0	---	0.00	29.990 
01:50	63.1	63.1	63.1	90	60.1	0	0	---	0.00	29.990 
01:55	62.9	62.9	62.9	90	59.9	0	0	---	0.00	29.990 
02:00	62.9	62.9	62.9	91	60.2	0	0	---	0.00	29.989 
02:05	62.7	62.7	62.7	91	60.0	0	0	---	0.00	29.989 
02:10	62.7	62.7	62.7	91	60.0	0	0	---	0.00	29.989 
02:15	62.6	62.6	62.6	91	59.9	0	0	---	0.00	29.996 
02:20	62.6	62.6	62.6	92	60.2	0	0	---	0.00	29.996 
02:25	62.4	62.4	62.4	92	60.0	0	0	---	0.00	29.996 
02:30	62.4	62.4	62.4	92	60.0	0	1	315	0.00	29.995 
02:35	62.6	62.6	62.6	92	60.2	0	0	---	0.00	29.995 
02:40	62.6	62.6	62.6	92	60.2	0	0	---	0.00	29.995 
02:45	62.6	62.6	62.6	92	60.2	0	0	---	0.00	29.995 
02:50	62.6	62.6	62.6	92	60.2	0	0	---	0.00	29.995 
02:55	62.6	62.6	62.6	92	60.2	0	0	---	0.00	29.995 
03:00	62.6	62.6	62.6	92	60.2	0	0	---	0.00	29.994 
03:05	62.4	62.4	62.4	92	60.0	0	0	---	0.00	29.994 
03:10	62.4	62.4	62.4	92	60.0	0	0	---	0.00	29.994 
03:15	62.4	62.4	62.4	92	60.0	0	0	---	0.00	29.989 
03:20	62.3	62.3	62.3	92	59.9	0	0	---	0.00	29.989 
03:25	62.3	62.3	62.3	92	59.9	0	0	---	0.00	29.989 
03:30	62.1	62.1	62.1	92	59.7	0	0	---	0.00	29.989 
03:35	62.1	62.1	62.1	92	59.7	0	0	---	0.00	29.989 
03:40	62.0	62.0	62.0	92	59.6	0	0	---	0.00	29.989 
03:45	62.0	62.0	62.0	92	59.6	0	0	---	0.00	29.990 
03:50	62.0	62.0	62.0	93	59.9	0	0	---	0.00	29.990 
03:55	62.0	62.0	62.0	93	59.9	0	0	---	0.00	29.990 
04:00	62.0	62.0	62.0	93	59.9	0	0	---	0.00	29.989 
04:05	62.0	62.0	62.0	93	59.9	0	0	---	0.00	29.989 
04:10	62.0	62.0	62.0	93	59.9	0	0	---	0.00	29.989 
04:15	62.0	62.0	62.0	93	59.9	0	0	---	0.00	29.988 
04:20	62.0	62.0	62.0	93	59.9	0	0	---	0.00	29.988 
04:25	62.0	62.0	62.0	93	59.9	0	0	---	0.00	29.988 
04:30	61.8	61.8	61.8	93	59.8	0	0	---	0.00	29.987 
04:35	61.8	61.8	61.8	93	59.8	0	0	---	0.00	29.987 
04:40	61.8	61.8	61.8	93	59.8	0	0	---	0.00	29.987 
04:45	61.8	61.8	61.8	93	59.8	0	0	---	0.00	29.989 
04:50	61.6	61.6	61.6	93	59.6	0	0	---	0.00	29.989 
04:55	61.5	61.5	61.5	93	59.5	0	0	---	0.00	29.989 
05:00	61.5	61.5	61.5	93	59.5	0	0	---	0.00	29.990 
05:05	61.5	61.5	61.5	93	59.5	0	0	---	0.00	29.990 
05:10	61.3	61.3	61.3	93	59.3	0	0	---	0.00	29.990 
05:15	61.3	61.3	61.3	93	59.3	0	1	315	0.00	29.991 
05:20	61.5	61.5	61.5	93	59.5	0	1	315	0.00	29.991 
05:25	61.5	61.5	61.5	93	59.5	0	1	315	0.00	29.991 
05:30	61.5	61.5	61.5	93	59.5	0	0	---	0.00	29.993 
05:35	61.5	61.5	61.5	93	59.5	0	1	315	0.00	29.993 
05:40	61.5	61.5	61.5	93	59.5	0	1	315	0.00	29.993 
05:45	61.5	61.5	61.5	93	59.5	0	0	---	0.00	29.993 
05:50	61.5	61.5	61.5	93	59.5	0	1	315	0.00	29.993 
05:55	61.5	61.5	61.5	93	59.5	0	0	---	0.00	29.993 
06:00	61.5	61.5	61.5	93	59.5	0	1	315	0.00	29.992 
06:05	61.5	61.5	61.5	93	59.5	0	1	315	0.00	29.992 
06:10	61.5	61.5	61.5	93	59.5	0	1	315	0.00	29.992 
06:15	61.5	61.5	61.5	93	59.5	0	1	315	0.00	29.996 
06:20	61.5	61.5	61.5	93	59.5	0	0	---	0.00	29.996 
06:25	61.5	61.5	61.5	93	59.5	0	0	---	0.00	29.996 
06:30	61.3	61.3	61.3	93	59.3	0	0	---	0.00	29.993 
06:35	61.3	61.3	61.3	92	59.0	0	1	315	0.00	29.993 
06:40	61.3	61.3	61.3	92	59.0	0	0	---	0.00	29.993 
06:45	61.2	61.2	61.2	92	58.9	0	0	---	0.00	29.999 
06:50	61.2	61.2	61.2	92	58.9	0	0	---	0.00	29.999 
06:55	61.2	61.2	61.2	92	58.9	0	0	---	0.00	29.999 
07:00	61.0	61.0	61.0	92	58.7	0	0	---	0.00	30.004 
07:05	61.0	61.0	61.0	92	58.7	0	0	---	0.00	30.004 
07:10	61.0	61.0	61.0	92	58.7	0	0	---	0.00	30.004 
07:15	61.0	61.0	61.0	93	59.0	0	1	315	0.00	30.009 
07:20	61.0	61.0	61.0	93	59.0	0	1	315	0.00	30.009 
07:25	61.0	61.0	61.0	92	58.7	0	1	315	0.00	30.009 
07:30	60.9	60.9	60.9	92	58.6	0	0	---	0.00	30.014 
07:35	60.9	60.9	60.9	92	58.6	0	0	---	0.00	30.014 
07:40	60.9	60.9	60.9	92	58.6	0	0	---	0.00	30.014 
07:45	60.7	60.7	60.7	92	58.4	0	1	315	0.00	30.020 
07:50	60.7	60.7	60.7	93	58.7	0	1	315	0.00	30.020 
07:55	60.9	60.9	60.9	93	58.9	0	0	---	0.00	30.020 
08:00	60.9	60.9	60.9	93	58.9	0	0	---	0.00	30.024 
08:05	61.0	61.0	61.0	93	59.0	0	0	---	0.00	30.024 
08:10	61.2	61.2	61.2	93	59.2	0	0	---	0.00	30.024 
08:15	61.3	61.3	61.3	93	59.3	0	1	315	0.00	30.027 
08:20	61.6	61.6	61.6	93	59.6	0	0	---	0.00	30.027 
08:25	62.0	62.0	62.0	93	59.9	0	1	315	0.00	30.027 
08:30	62.3	62.3	62.3	92	59.9	0	1	315	0.00	30.027 
08:35	62.4	62.4	62.4	92	60.0	0	1	315	0.00	30.027 
08:40	62.9	62.9	62.9	92	60.5	0	2	315	0.00	30.027 
08:45	63.2	63.2	63.2	91	60.5	0	1	315	0.00	30.032 
08:50	63.5	63.5	63.5	90	60.5	0	1	315	0.00	30.032 
08:55	63.9	63.9	63.9	90	60.9	0	1	315	0.00	30.032 
09:00	64.2	64.2	64.2	89	60.9	0	2	315	0.00	30.030 
09:05	64.7	64.7	64.7	88	61.1	0	2	315	0.00	30.030 
09:10	65.0	65.0	65.0	87	61.0	0	2	315	0.00	30.030 
09:15	65.5	65.5	65.5	86	61.2	0	2	315	0.00	30.031 
09:20	65.8	65.8	65.8	85	61.2	0	1	315	0.00	30.031 
09:25	66.3	66.3	66.3	84	61.3	0	1	0	0.00	30.031 
09:30	66.6	66.6	66.6	83	61.3	0	2	0	0.00	30.028 
09:35	67.1	67.1	67.1	82	61.4	0	2	0	0.00	30.028 
09:40	67.8	67.8	67.8	81	61.7	0	2	0	0.00	30.028 
09:45	68.3	68.3	68.3	79	61.5	0	2	0	0.00	30.025 
09:50	68.8	68.8	68.8	78	61.7	0	2	0	0.00	30.025 
09:55	69.3	69.3	69.3	77	61.8	0	2	0	0.00	30.025 
10:00	69.9	69.9	69.9	77	62.3	0	1	0	0.00	30.027 
10:05	70.4	70.4	70.4	75	62.1	0	2	0	0.00	30.027 
10:10	70.9	70.9	70.9	74	62.2	0	2	0	0.00	30.027 
10:15	71.6	71.6	71.6	72	62.1	1	4	270	0.00	30.031 
10:20	72.0	72.0	72.0	71	62.1	1	4	270	0.00	30.031 
10:25	72.5	72.5	72.5	70	62.1	0	2	270	0.00	30.031 
10:30	73.0	73.0	73.0	69	62.2	1	2	270	0.00	30.032 
10:35	73.5	73.5	73.5	66	61.4	1	3	270	0.00	30.032 
10:40	73.9	73.9	73.9	66	61.8	1	3	270	0.00	30.032 
10:45	74.4	74.4	74.4	66	62.3	0	2	270	0.00	30.031 
10:50	74.7	74.7	74.7	63	61.2	1	4	270	0.00	30.031 
10:55	75.1	75.1	77.3	63	61.6	1	3	270	0.00	30.031 
11:00	75.6	75.6	77.7	61	61.2	1	3	270	0.00	30.030 
11:05	76.0	76.0	78.0	62	62.0	1	3	270	0.00	30.030 
11:10	76.5	76.5	78.4	60	61.6	1	3	270	0.00	30.030 
11:15	76.8	76.8	78.6	60	61.8	1	3	270	0.00	30.023 
11:20	77.2	77.2	78.9	59	61.7	0	3	270	0.00	30.023 
11:25	77.7	77.7	79.4	59	62.2	1	4	270	0.00	30.023 
11:30	78.1	78.1	79.6	57	61.6	1	4	270	0.00	30.019 
11:35	78.1	78.1	79.6	56	61.1	2	4	270	0.00	30.019 
11:40	78.5	78.5	79.9	55	61.0	1	4	270	0.00	30.019 
11:45	78.6	78.6	79.8	53	60.0	2	4	270	0.00	30.016 
11:50	78.6	78.6	79.8	52	59.5	2	6	270	0.00	30.016 
11:55	79.0	79.0	80.3	54	60.9	2	3	315	0.00	30.016 
12:00	79.2	79.2	80.3	52	60.0	2	4	315	0.00	30.015 
12:05	79.6	79.6	80.7	53	60.9	1	3	270	0.00	30.015 
12:10	79.9	79.9	81.0	53	61.2	1	4	270	0.00	30.015 
12:15	80.3	80.3	81.4	53	61.6	1	3	270	0.00	30.010 
12:20	80.5	80.5	81.4	51	60.7	2	4	270	0.00	30.010 
12:25	80.5	80.5	81.5	52	61.2	2	4	270	0.00	30.010 
12:30	80.3	80.3	81.4	53	61.6	2	7	338	0.00	30.006 
12:35	80.5	80.5	81.5	52	61.2	1	4	338	0.00	30.006 
12:40	80.5	80.5	81.0	48	59.0	2	5	292	0.00	30.006 
12:45	80.7	80.7	81.8	53	62.0	1	4	292	0.00	30.000 
12:50	81.1	81.1	81.8	50	60.7	1	3	292	0.00	30.000 
12:55	81.8	81.8	82.6	50	61.3	1	4	270	0.00	30.000 
13:00	81.4	81.4	81.8	47	59.2	2	5	270	0.00	29.996 
13:05	81.6	81.6	82.3	50	61.1	1	3	270	0.00	29.996 
13:10	81.8	81.8	82.7	51	61.9	1	4	292	0.00	29.996 
13:15	82.0	82.0	82.3	47	59.8	1	4	315	0.00	29.988 
13:20	81.4	81.4	81.6	46	58.6	1	4	270	0.00	29.988 
13:25	81.4	81.4	81.8	47	59.2	1	3	292	0.00	29.988 
13:30	81.8	81.8	82.3	48	60.2	1	3	315	0.00	29.979 
13:35	82.2	82.2	82.4	46	59.3	1	4	270	0.00	29.979 
13:40	81.6	81.6	81.8	46	58.8	1	4	270	0.00	29.979 
13:45	81.6	81.6	81.9	47	59.4	1	4	270	0.00	29.976 
13:50	82.0	82.0	82.1	45	58.5	1	4	270	0.00	29.976 
13:55	82.0	82.0	82.2	46	59.1	2	5	270	0.00	29.976 
14:00	82.2	82.2	82.1	44	58.1	1	4	270	0.00	29.972 
14:05	82.2	82.2	82.4	46	59.3	2	4	270	0.00	29.972 
14:10	82.6	82.6	83.0	47	60.3	1	5	270	0.00	29.972 
14:15	82.6	82.6	82.4	43	57.8	2	5	270	0.00	29.966 
14:20	82.8	82.8	83.0	46	59.9	1	3	270	0.00	29.966 
14:25	83.4	83.4	83.2	43	58.5	1	5	315	0.00	29.966 
14:30	83.6	83.6	83.9	46	60.6	1	4	292	0.00	29.962 
14:35	83.2	83.2	83.1	44	59.0	1	3	248	0.00	29.962 
14:40	82.6	82.6	82.5	44	58.4	1	4	292	0.00	29.962 
14:45	81.8	81.8	81.9	45	58.4	2	4	292	0.00	29.962 
14:50	82.2	82.2	82.3	45	58.7	1	4	292	0.00	29.962 
14:55	82.4	82.4	82.5	45	58.9	1	4	270	0.00	29.962 
15:00	82.4	82.4	82.5	45	58.9	1	5	270	0.00	29.955 
15:05	82.6	82.6	82.5	44	58.4	2	4	270	0.00	29.955 
15:10	82.6	82.6	82.4	43	57.8	1	4	292	0.00	29.955 
15:15	82.8	82.8	82.6	43	58.0	2	5	270	0.00	29.951 
15:20	82.6	82.6	82.5	44	58.4	1	3	270	0.00	29.951 
15:25	82.8	82.8	82.7	44	58.6	1	4	270	0.00	29.951 
15:30	83.0	83.0	82.8	43	58.2	1	4	270	0.00	29.939 
15:35	83.0	83.0	82.5	41	56.8	2	5	270	0.00	29.939 
15:40	83.2	83.2	82.8	42	57.7	1	2	270	0.00	29.939 
15:45	83.4	83.4	82.9	41	57.2	2	4	270	0.00	29.936 
15:50	83.4	83.4	82.9	41	57.2	2	7	270	0.00	29.936 
15:55	83.4	83.4	83.0	42	57.9	1	5	270	0.00	29.936 
16:00	83.4	83.4	83.2	43	58.5	1	3	270	0.00	29.934 
16:05	83.4	83.4	83.0	42	57.9	1	5	270	0.00	29.934 
16:10	82.8	82.8	82.3	41	56.7	2	6	292	0.00	29.934 
16:15	83.0	83.0	82.8	43	58.2	1	4	270	0.00	29.925 
16:20	82.8	82.8	82.4	42	57.3	1	3	270	0.00	29.925 
16:25	82.8	82.8	82.6	43	58.0	1	2	270	0.00	29.925 
16:30	83.0	83.0	82.6	42	57.5	1	4	270	0.00	29.921 
16:35	83.2	83.2	82.7	41	57.0	2	6	270	0.00	29.921 
16:40	83.0	83.0	82.8	43	58.2	2	5	292	0.00	29.921 
16:45	83.0	83.0	82.6	42	57.5	1	3	248	0.00	29.920 
16:50	82.8	82.8	82.4	42	57.3	1	4	248	0.00	29.920 
16:55	82.6	82.6	82.4	43	57.8	1	4	270	0.00	29.920 
17:00	82.6	82.6	82.2	42	57.2	1	5	270	0.00	29.914 
17:05	82.8	82.8	82.3	41	56.7	1	3	270	0.00	29.914 
17:10	82.8	82.8	82.4	42	57.3	2	5	270	0.00	29.914 
17:15	82.8	82.8	82.3	41	56.7	1	4	270	0.00	29.913 
17:20	82.8	82.8	82.3	41	56.7	1	3	270	0.00	29.913 
17:25	82.4	82.4	82.2	43	57.6	0	2	248	0.00	29.913 
17:30	82.4	82.4	82.0	42	57.0	2	5	248	0.00	29.909 
17:35	82.2	82.2	82.0	43	57.4	1	5	270	0.00	29.909 
17:40	82.2	82.2	81.9	42	56.8	2	4	248	0.00	29.909 
17:45	82.0	82.0	81.7	42	56.6	1	4	270	0.00	29.905 
17:50	81.8	81.8	81.6	43	57.1	1	3	270	0.00	29.905 
17:55	81.8	81.8	81.8	44	57.7	1	3	248	0.00	29.905 
18:00	82.0	82.0	81.8	43	57.3	1	3	68	0.00	29.905 
18:05	82.2	82.2	81.9	42	56.8	2	4	292	0.00	29.905 
18:10	82.2	82.2	82.0	43	57.4	1	3	270	0.00	29.905 
18:15	82.2	82.2	81.9	42	56.8	1	4	270	0.00	29.904 
18:20	82.0	82.0	81.8	43	57.3	1	4	90	0.00	29.904 
18:25	81.8	81.8	81.6	43	57.1	1	4	248	0.00	29.904 
18:30	81.6	81.6	81.3	42	56.3	1	3	270	0.00	29.901 
18:35	81.4	81.4	81.3	43	56.7	1	4	270	0.00	29.901 
18:40	81.2	81.2	81.1	43	56.5	2	4	270	0.00	29.901 
18:45	81.2	81.2	81.1	43	56.5	1	4	270	0.00	29.898 
18:50	81.1	81.1	81.1	44	57.1	0	2	270	0.00	29.898 
18:55	80.9	80.9	81.0	44	56.9	1	3	270	0.00	29.898 
19:00	80.7	80.7	80.8	44	56.7	0	2	270	0.00	29.893 
19:05	80.5	80.5	80.6	44	56.6	1	3	270	0.00	29.893 
19:10	80.3	80.3	80.6	45	57.0	0	2	270	0.00	29.893 
19:15	80.1	80.1	80.4	45	56.8	1	2	270	0.00	29.893 
19:20	79.9	79.9	80.4	46	57.2	0	2	270	0.00	29.893 
19:25	79.6	79.6	80.1	46	57.0	0	1	270	0.00	29.893 
19:30	79.4	79.4	80.1	47	57.4	0	1	270	0.00	29.895 
19:35	79.0	79.0	79.8	48	57.6	0	0	---	0.00	29.895 
19:40	78.6	78.6	79.6	49	57.8	0	1	270	0.00	29.895 
19:45	78.3	78.3	79.4	49	57.5	0	1	270	0.00	29.897 
19:50	78.1	78.1	79.3	49	57.4	0	1	270	0.00	29.897 
19:55	77.7	77.7	79.0	50	57.6	0	0	---	0.00	29.897 
20:00	77.4	77.4	78.8	50	57.3	0	1	270	0.00	29.895 
20:05	77.2	77.2	78.7	51	57.6	0	0	---	0.00	29.895 
20:10	76.8	76.8	78.5	51	57.3	0	0	---	0.00	29.895 
20:15	76.5	76.5	78.4	52	57.5	0	0	---	0.00	29.893 
20:20	76.1	76.1	78.1	53	57.7	0	0	---	0.00	29.893 
20:25	75.8	75.8	78.0	54	57.9	0	0	---	0.00	29.893 
20:30	75.4	75.4	77.7	55	58.1	0	0	---	0.00	29.892 
20:35	74.9	74.9	74.9	56	58.1	0	0	---	0.00	29.892 
20:40	74.6	74.6	74.6	56	57.8	0	0	---	0.00	29.892 
20:45	74.2	74.2	74.2	57	58.0	0	0	---	0.00	29.892 
20:50	73.9	73.9	73.9	58	58.2	0	0	---	0.00	29.892 
20:55	73.5	73.5	73.5	59	58.3	0	0	---	0.00	29.892 
21:00	73.3	73.3	73.3	60	58.6	0	0	---	0.00	29.895 
21:05	73.0	73.0	73.0	60	58.3	0	0	---	0.00	29.895 
21:10	72.8	72.8	72.8	61	58.6	0	0	---	0.00	29.895 
21:15	72.5	72.5	72.5	62	58.7	0	0	---	0.00	29.892 
21:20	72.3	72.3	72.3	63	59.0	0	0	---	0.00	29.892 
21:25	72.3	72.3	72.3	63	59.0	0	0	---	0.00	29.892 
21:30	72.0	72.0	72.0	64	59.1	0	0	---	0.00	29.895 
21:35	71.8	71.8	71.8	65	59.4	0	0	---	0.00	29.895 
21:40	71.6	71.6	71.6	65	59.2	0	0	---	0.00	29.895 
21:45	71.5	71.5	71.5	66	59.5	0	0	---	0.00	29.903 
21:50	71.3	71.3	71.3	66	59.3	0	0	---	0.00	29.903 
21:55	71.1	71.1	71.1	67	59.6	0	0	---	0.00	29.903 
22:00	70.9	70.9	70.9	68	59.8	0	0	---	0.00	29.899 
22:05	70.8	70.8	70.8	68	59.7	0	0	---	0.00	29.899 
22:10	70.6	70.6	70.6	69	59.9	0	0	---	0.00	29.899 
22:15	70.4	70.4	70.4	69	59.7	0	0	---	0.00	29.893 
22:20	70.3	70.3	70.3	69	59.6	0	1	270	0.00	29.893 
22:25	70.1	70.1	70.1	70	59.8	0	0	---	0.00	29.893 
22:30	70.1	70.1	70.1	70	59.8	0	2	270	0.00	29.893 
22:35	70.1	70.1	70.1	70	59.8	0	2	270	0.00	29.893 
22:40	70.3	70.3	70.3	69	59.6	0	0	---	0.00	29.893 
22:45	70.3	70.3	70.3	69	59.6	0	1	270	0.00	29.891 
22:50	70.3	70.3	70.3	69	59.6	0	1	270	0.00	29.891 
22:55	70.1	70.1	70.1	70	59.8	0	1	270	0.00	29.891 
23:00	69.9	69.9	69.9	70	59.7	0	1	270	0.00	29.889 
23:05	69.8	69.8	69.8	70	59.6	0	1	270	0.00	29.889 
23:10	69.6	69.6	69.6	71	59.8	0	0	---	0.00	29.889 
23:15	69.6	69.6	69.6	71	59.8	0	2	270	0.00	29.886 
23:20	69.4	69.4	69.4	71	59.6	0	2	270	0.00	29.886 
23:25	69.3	69.3	69.3	71	59.5	0	2	270	0.00	29.886 
23:30	69.3	69.3	69.3	71	59.5	0	2	270	0.00	29.885 
23:35	69.1	69.1	69.1	71	59.3	0	1	270	0.00	29.885 
23:40	68.9	68.9	68.9	71	59.1	0	1	270	0.00	29.885 
23:45	68.9	68.9	68.9	71	59.1	0	0	---	0.00	29.884 
23:50	68.9	68.9	68.9	71	59.1	0	0	---	0.00	29.884 
23:55	68.8	68.8	68.8	71	59.0	0	0	---	0.00	29.884 

CoCoRaHS
IN-AL-39
A2 Web Hosting
Creative Commons License
GoDaddy
search engine by freefind advanced

loaded 2018-11-19 18:43:34 • last modified 2010-11-18 10:43:29
Privacy PolicyDisclaimer
• wx.awcolley.com is powered by PmWiki v.2002016 •
• all content (unless otherwise noted) © 2018 A W Colley